Finnhawk — OJNL — position and weather

sailwx.info

Track history (hours):
 
Tides and Currents Weather Stations Pressure Air Temp Water Temp Dewpoint Dewpoint Depression Visibility Wind Speed Wind Dir Waves Ship Positions

Finnhawk

Last reported at 2016-May-05 22:28 UTC. Time now 2016-May-05 23:44 UTC.
Position N 51°49' E 003°18'.

Length 163 m; draft 6.3 m.

Type: Ship. MMSI: 230007000.

Date/timePositionNaut miles runAvg speedWind from/ knotsBaromVisibWave heightAir tempDewpointWater temp
2016-May-05 22:28N 51°49' E 003°18'1112.5
2016-May-05 21:33N 51°38' E 003°21'1514.6
2016-May-05 20:33N 51°26' E 003°35'1212.5
2016-May-05 19:33N 51°21' E 003°54'1211.6
2016-May-05 18:33N 51°24' E 004°12'9 8.7
2016-May-05 17:33N 51°16' E 004°17'0 0.5
2016-May-05 16:34N 51°16' E 004°16'2 2.0
2016-May-05 15:32N 51°17' E 004°13'0 0.0
2016-May-05 14:32N 51°17' E 004°13'0 0.0
2016-May-05 13:32N 51°17' E 004°13'0 0.0
2016-May-05 12:32N 51°17' E 004°13'0 0.0
2016-May-05 11:32N 51°17' E 004°13'0 0.0
2016-May-05 10:32N 51°17' E 004°13'0 0.0
2016-May-05 09:32N 51°17' E 004°13'0 0.0
2016-May-05 08:32N 51°17' E 004°13'1 0.6
2016-May-05 07:33N 51°17' E 004°14'2 1.8
2016-May-05 06:33N 51°16' E 004°17'6 6.4
2016-May-05 05:34N 51°22' E 004°13'1010.2
2016-May-05 04:33N 51°24' E 003°57'1111.2
2016-May-05 03:33N 51°26' E 003°40'1212.5
2016-May-05 02:34N 51°34' E 003°24'1312.9
2016-May-05 01:33N 51°45' E 003°13'1716.9
2016-May-05 00:33N 52°01' E 003°22'1716.9
2016-May-04 23:33N 52°17' E 003°31'1716.5
2016-May-04 22:33N 52°24' E 003°56'1717.1
2016-May-04 21:33N 52°28' E 004°23'8 8.2
2016-May-04 20:34N 52°28' E 004°36'5 5.4
2016-May-04 19:34N 52°26' E 004°45'4 3.7
2016-May-04 18:33N 52°24' E 004°50'0 0.0
2016-May-04 17:33N 52°24' E 004°50'0 0.0
2016-May-04 16:33N 52°24' E 004°50'0 0.0
2016-May-04 15:33N 52°24' E 004°50'0 0.0
2016-May-04 14:30N 52°24' E 004°50'0 0.0
2016-May-04 13:33N 52°24' E 004°50'0 0.0
2016-May-04 12:33N 52°24' E 004°50'0 0.0
2016-May-04 11:33N 52°24' E 004°50'0 0.0
2016-May-04 10:33N 52°24' E 004°50'0 0.0
2016-May-04 09:33N 52°24' E 004°50'1 1.1
2016-May-04 08:34N 52°25' E 004°49'8 7.9
2016-May-04 07:33N 52°28' E 004°37'2 2.3
2016-May-04 06:33N 52°28' E 004°33'1212.0
2016-May-04 05:33N 52°29' E 004°14'1515.4
2016-May-04 04:33N 52°25' E 003°49'1716.6
2016-May-04 03:31N 52°16' E 003°26'1716.7
2016-May-04 02:31N 52°06' E 003°04'2819.8
2016-May-04 01:07N 51°51' E 002°25'1220.9
2016-May-04 00:33N 51°44' E 002°11'2121.1
2016-May-03 23:33N 51°32' E 001°42'1212.3
2016-May-03 22:33N 51°28' E 001°24'1514.7
2016-May-03 21:33N 51°29' E 000°60'1515.5
2016-May-03 20:33N 51°30' E 000°35'10 9.7
2016-May-03 19:34N 51°27' E 000°20'1 0.6
2016-May-03 18:33N 51°27' E 000°21'0 0.0
2016-May-03 17:34N 51°27' E 000°21'0 0.0
2016-May-03 16:33N 51°27' E 000°21'0 0.0
2016-May-03 15:34N 51°27' E 000°21'0 0.0
2016-May-03 14:34N 51°27' E 000°21'0 0.0
2016-May-03 13:34N 51°27' E 000°21'0 0.0
2016-May-03 12:34N 51°27' E 000°21'0 0.0
2016-May-03 11:34N 51°27' E 000°21'0 0.0
2016-May-03 10:34N 51°27' E 000°21'0 0.0
2016-May-03 09:33N 51°27' E 000°21'0 0.0
2016-May-03 08:34N 51°27' E 000°21'0 0.0
2016-May-03 07:34N 51°27' E 000°21'1 0.5
2016-May-03 06:33N 51°27' E 000°21'1 0.8
2016-May-03 05:34N 51°27' E 000°22'1110.6
2016-May-03 04:34N 51°30' E 000°38'1312.5
2016-May-03 03:33N 51°29' E 000°58'1111.1
2016-May-03 02:34N 51°29' E 001°16'1211.6
2016-May-03 01:34N 51°28' E 001°34'1818.2
2016-May-03 00:33N 51°39' E 001°57'30114.9
2016-May-02 04:19N 55°50' E 006°40'10315.0
2016-May-01 21:28N 57°11' E 008°33'1915.1
2016-May-01 20:12N 57°22' E 009°02'1015.0
2016-May-01 19:33N 57°27' E 009°17'1515.3
2016-May-01 18:33N 57°36' E 009°40'1515.2
2016-May-01 17:33N 57°43' E 010°05'1515.0
2016-May-01 16:33N 57°49' E 010°32'1413.8
2016-May-01 15:33N 57°44' E 010°56'1514.8
2016-May-01 14:34N 57°34' E 011°17'1514.7
2016-May-01 13:33N 57°21' E 011°31'1514.8
2016-May-01 12:33N 57°07' E 011°40'1414.3
2016-May-01 11:33N 56°54' E 011°49'1514.5
2016-May-01 10:31N 56°39' E 011°57'1515.1
2016-May-01 09:30N 56°25' E 012°09'1415.2
2016-May-01 08:33N 56°14' E 012°24'1515.2
2016-May-01 07:33N 56°02' E 012°40'1414.5
2016-May-01 06:34N 55°47' E 012°43'1313.2
2016-May-01 05:33N 55°34' E 012°42'1313.2
2016-May-01 04:33N 55°21' E 012°40'1313.0
2016-May-01 03:33N 55°15' E 013°00'1514.5
2016-May-01 02:33N 55°14' E 013°26'1414.5
2016-May-01 01:33N 55°14' E 013°51'1514.6
2016-May-01 00:34N 55°14' E 014°17'1515.2
2016-Apr-30 23:34N 55°26' E 014°34'1515.0
2016-Apr-30 22:34N 55°35' E 014°55'1515.1
2016-Apr-30 21:34N 55°42' E 015°18'1515.2
2016-Apr-30 20:33N 55°49' E 015°43'1515.2
2016-Apr-30 19:33N 55°57' E 016°06'31114.8
2016-Apr-29 22:33N 59°35' E 023°01'1515.0
2016-Apr-29 21:33N 59°40' E 023°29'1515.0
2016-Apr-29 20:33N 59°45' E 023°58'1815.3
2016-Apr-29 19:24N 59°50' E 024°31'2014.6
2016-Apr-29 18:03N 60°00' E 025°05'30 1.5
2016-Apr-28 22:05N 60°04' E 026°05'814.6
2016-Apr-28 21:34N 60°09' E 026°17'1413.9
2016-Apr-28 20:34N 60°19' E 026°36'1313.3
2016-Apr-28 19:34N 60°27' E 026°58'3 2.4
2016-Apr-28 18:31N 60°29' E 026°57'0 0.0
2016-Apr-28 17:31N 60°29' E 026°57'0 0.0
2016-Apr-28 16:31N 60°29' E 026°57'0 0.0
2016-Apr-28 15:31N 60°29' E 026°57'0 0.0
2016-Apr-28 14:31N 60°29' E 026°57'0 0.0
2016-Apr-28 13:31N 60°29' E 026°57'0 0.0
2016-Apr-28 12:31N 60°29' E 026°57'0 0.0
2016-Apr-28 11:31N 60°29' E 026°57'0 0.0
2016-Apr-28 10:31N 60°29' E 026°57'0 0.0
2016-Apr-28 09:31N 60°29' E 026°57'0 0.0
2016-Apr-28 08:31N 60°29' E 026°57'0 0.0
2016-Apr-28 07:31N 60°29' E 026°57'0 0.0
2016-Apr-28 06:31N 60°29' E 026°57'0 0.0
2016-Apr-28 05:31N 60°29' E 026°57'0 0.0
2016-Apr-28 04:31N 60°29' E 026°57'0 0.0
2016-Apr-28 03:31N 60°29' E 026°57'0 0.0
2016-Apr-28 02:31N 60°29' E 026°57'0 0.0
2016-Apr-28 01:31N 60°29' E 026°57'0 0.0
2016-Apr-28 00:31N 60°29' E 026°57'0 0.0
2016-Apr-27 23:31N 60°29' E 026°57'0 0.0
2016-Apr-27 22:31N 60°29' E 026°57'5 5.4
2016-Apr-27 21:34N 60°24' E 026°53'1818.4
2016-Apr-27 20:33N 60°13' E 026°24'1918.2
2016-Apr-27 19:30N 60°01' E 025°54'53 5.3
2016-Apr-27 09:28N 59°42' E 024°16'1820.0
2016-Apr-27 08:33N 59°36' E 023°42'35018.3
2016-Apr-26 13:23N 55°42' E 015°35'1517.6
2016-Apr-26 12:33N 55°35' E 015°13'1717.5
2016-Apr-26 11:33N 55°26' E 014°45'1818.2
2016-Apr-26 10:33N 55°12' E 014°25'1716.5
2016-Apr-26 09:33N 55°10' E 013°56'1717.0
2016-Apr-26 08:34N 55°12' E 013°27'1717.4
2016-Apr-26 07:33N 55°15' E 012°57'1413.6
2016-Apr-26 06:33N 55°24' E 012°39'1313.0
2016-Apr-26 05:34N 55°37' E 012°42'1313.1
2016-Apr-26 04:34N 55°50' E 012°41'1615.5
2016-Apr-26 03:33N 56°05' E 012°35'1716.4
2016-Apr-26 02:31N 56°18' E 012°15'1718.0
2016-Apr-26 01:33N 56°33' E 011°57'1818.0
2016-Apr-26 00:33N 56°50' E 011°48'1817.6
2016-Apr-25 23:34N 57°06' E 011°37'1817.8
2016-Apr-25 22:34N 57°23' E 011°27'  
Track history (hours):
 
Tides and Currents Weather Stations Pressure Air Temp Water Temp Dewpoint Dewpoint Depression Visibility Wind Speed Wind Dir Waves Ship Positions

Finnhawk

Last reported at 2016-May-05 22:28 UTC. Time now 2016-May-05 23:44 UTC.
Position N 51°49' E 003°18'.

Length 163 m; draft 6.3 m.

Type: Ship. MMSI: 230007000.

Date/timePositionNaut miles runAvg speedWind from/ knotsBaromVisibWave heightAir tempDewpointWater temp
2016-May-05 22:28N 51°49' E 003°18'1112.5
2016-May-05 21:33N 51°38' E 003°21'1514.6
2016-May-05 20:33N 51°26' E 003°35'1212.5
2016-May-05 19:33N 51°21' E 003°54'1211.6
2016-May-05 18:33N 51°24' E 004°12'9 8.7
2016-May-05 17:33N 51°16' E 004°17'0 0.5
2016-May-05 16:34N 51°16' E 004°16'2 2.0
2016-May-05 15:32N 51°17' E 004°13'0 0.0
2016-May-05 14:32N 51°17' E 004°13'0 0.0
2016-May-05 13:32N 51°17' E 004°13'0 0.0
2016-May-05 12:32N 51°17' E 004°13'0 0.0
2016-May-05 11:32N 51°17' E 004°13'0 0.0
2016-May-05 10:32N 51°17' E 004°13'0 0.0
2016-May-05 09:32N 51°17' E 004°13'0 0.0
2016-May-05 08:32N 51°17' E 004°13'1 0.6
2016-May-05 07:33N 51°17' E 004°14'2 1.8
2016-May-05 06:33N 51°16' E 004°17'6 6.4
2016-May-05 05:34N 51°22' E 004°13'1010.2
2016-May-05 04:33N 51°24' E 003°57'1111.2
2016-May-05 03:33N 51°26' E 003°40'1212.5
2016-May-05 02:34N 51°34' E 003°24'1312.9
2016-May-05 01:33N 51°45' E 003°13'1716.9
2016-May-05 00:33N 52°01' E 003°22'1716.9
2016-May-04 23:33N 52°17' E 003°31'1716.5
2016-May-04 22:33N 52°24' E 003°56'1717.1
2016-May-04 21:33N 52°28' E 004°23'8 8.2
2016-May-04 20:34N 52°28' E 004°36'5 5.4
2016-May-04 19:34N 52°26' E 004°45'4 3.7
2016-May-04 18:33N 52°24' E 004°50'0 0.0
2016-May-04 17:33N 52°24' E 004°50'0 0.0
2016-May-04 16:33N 52°24' E 004°50'0 0.0
2016-May-04 15:33N 52°24' E 004°50'0 0.0
2016-May-04 14:30N 52°24' E 004°50'0 0.0
2016-May-04 13:33N 52°24' E 004°50'0 0.0
2016-May-04 12:33N 52°24' E 004°50'0 0.0
2016-May-04 11:33N 52°24' E 004°50'0 0.0
2016-May-04 10:33N 52°24' E 004°50'0 0.0
2016-May-04 09:33N 52°24' E 004°50'1 1.1
2016-May-04 08:34N 52°25' E 004°49'8 7.9
2016-May-04 07:33N 52°28' E 004°37'2 2.3
2016-May-04 06:33N 52°28' E 004°33'1212.0
2016-May-04 05:33N 52°29' E 004°14'1515.4
2016-May-04 04:33N 52°25' E 003°49'1716.6
2016-May-04 03:31N 52°16' E 003°26'1716.7
2016-May-04 02:31N 52°06' E 003°04'2819.8
2016-May-04 01:07N 51°51' E 002°25'1220.9
2016-May-04 00:33N 51°44' E 002°11'2121.1
2016-May-03 23:33N 51°32' E 001°42'1212.3
2016-May-03 22:33N 51°28' E 001°24'1514.7
2016-May-03 21:33N 51°29' E 000°60'1515.5
2016-May-03 20:33N 51°30' E 000°35'10 9.7
2016-May-03 19:34N 51°27' E 000°20'1 0.6
2016-May-03 18:33N 51°27' E 000°21'0 0.0
2016-May-03 17:34N 51°27' E 000°21'0 0.0
2016-May-03 16:33N 51°27' E 000°21'0 0.0
2016-May-03 15:34N 51°27' E 000°21'0 0.0
2016-May-03 14:34N 51°27' E 000°21'0 0.0
2016-May-03 13:34N 51°27' E 000°21'0 0.0
2016-May-03 12:34N 51°27' E 000°21'0 0.0
2016-May-03 11:34N 51°27' E 000°21'0 0.0
2016-May-03 10:34N 51°27' E 000°21'0 0.0
2016-May-03 09:33N 51°27' E 000°21'0 0.0
2016-May-03 08:34N 51°27' E 000°21'0 0.0
2016-May-03 07:34N 51°27' E 000°21'1 0.5
2016-May-03 06:33N 51°27' E 000°21'1 0.8
2016-May-03 05:34N 51°27' E 000°22'1110.6
2016-May-03 04:34N 51°30' E 000°38'1312.5
2016-May-03 03:33N 51°29' E 000°58'1111.1
2016-May-03 02:34N 51°29' E 001°16'1211.6
2016-May-03 01:34N 51°28' E 001°34'1818.2
2016-May-03 00:33N 51°39' E 001°57'30114.9
2016-May-02 04:19N 55°50' E 006°40'10315.0
2016-May-01 21:28N 57°11' E 008°33'1915.1
2016-May-01 20:12N 57°22' E 009°02'1015.0
2016-May-01 19:33N 57°27' E 009°17'1515.3
2016-May-01 18:33N 57°36' E 009°40'1515.2
2016-May-01 17:33N 57°43' E 010°05'1515.0
2016-May-01 16:33N 57°49' E 010°32'1413.8
2016-May-01 15:33N 57°44' E 010°56'1514.8
2016-May-01 14:34N 57°34' E 011°17'1514.7
2016-May-01 13:33N 57°21' E 011°31'1514.8
2016-May-01 12:33N 57°07' E 011°40'1414.3
2016-May-01 11:33N 56°54' E 011°49'1514.5
2016-May-01 10:31N 56°39' E 011°57'1515.1
2016-May-01 09:30N 56°25' E 012°09'1415.2
2016-May-01 08:33N 56°14' E 012°24'1515.2
2016-May-01 07:33N 56°02' E 012°40'1414.5
2016-May-01 06:34N 55°47' E 012°43'1313.2
2016-May-01 05:33N 55°34' E 012°42'1313.2
2016-May-01 04:33N 55°21' E 012°40'1313.0
2016-May-01 03:33N 55°15' E 013°00'1514.5
2016-May-01 02:33N 55°14' E 013°26'1414.5
2016-May-01 01:33N 55°14' E 013°51'1514.6
2016-May-01 00:34N 55°14' E 014°17'1515.2
2016-Apr-30 23:34N 55°26' E 014°34'1515.0
2016-Apr-30 22:34N 55°35' E 014°55'1515.1
2016-Apr-30 21:34N 55°42' E 015°18'1515.2
2016-Apr-30 20:33N 55°49' E 015°43'1515.2
2016-Apr-30 19:33N 55°57' E 016°06'31114.8
2016-Apr-29 22:33N 59°35' E 023°01'1515.0
2016-Apr-29 21:33N 59°40' E 023°29'1515.0
2016-Apr-29 20:33N 59°45' E 023°58'1815.3
2016-Apr-29 19:24N 59°50' E 024°31'2014.6
2016-Apr-29 18:03N 60°00' E 025°05'30 1.5
2016-Apr-28 22:05N 60°04' E 026°05'814.6
2016-Apr-28 21:34N 60°09' E 026°17'1413.9
2016-Apr-28 20:34N 60°19' E 026°36'1313.3
2016-Apr-28 19:34N 60°27' E 026°58'3 2.4
2016-Apr-28 18:31N 60°29' E 026°57'0 0.0
2016-Apr-28 17:31N 60°29' E 026°57'0 0.0
2016-Apr-28 16:31N 60°29' E 026°57'0 0.0
2016-Apr-28 15:31N 60°29' E 026°57'0 0.0
2016-Apr-28 14:31N 60°29' E 026°57'0 0.0
2016-Apr-28 13:31N 60°29' E 026°57'0 0.0
2016-Apr-28 12:31N 60°29' E 026°57'0 0.0
2016-Apr-28 11:31N 60°29' E 026°57'0 0.0
2016-Apr-28 10:31N 60°29' E 026°57'0 0.0
2016-Apr-28 09:31N 60°29' E 026°57'0 0.0
2016-Apr-28 08:31N 60°29' E 026°57'0 0.0
2016-Apr-28 07:31N 60°29' E 026°57'0 0.0
2016-Apr-28 06:31N 60°29' E 026°57'0 0.0
2016-Apr-28 05:31N 60°29' E 026°57'0 0.0
2016-Apr-28 04:31N 60°29' E 026°57'0 0.0
2016-Apr-28 03:31N 60°29' E 026°57'0 0.0
2016-Apr-28 02:31N 60°29' E 026°57'0 0.0
2016-Apr-28 01:31N 60°29' E 026°57'0 0.0
2016-Apr-28 00:31N 60°29' E 026°57'0 0.0
2016-Apr-27 23:31N 60°29' E 026°57'0 0.0
2016-Apr-27 22:31N 60°29' E 026°57'5 5.4
2016-Apr-27 21:34N 60°24' E 026°53'1818.4
2016-Apr-27 20:33N 60°13' E 026°24'1918.2
2016-Apr-27 19:30N 60°01' E 025°54'53 5.3
2016-Apr-27 09:28N 59°42' E 024°16'1820.0
2016-Apr-27 08:33N 59°36' E 023°42'35018.3
2016-Apr-26 13:23N 55°42' E 015°35'1517.6
2016-Apr-26 12:33N 55°35' E 015°13'1717.5
2016-Apr-26 11:33N 55°26' E 014°45'1818.2
2016-Apr-26 10:33N 55°12' E 014°25'1716.5
2016-Apr-26 09:33N 55°10' E 013°56'1717.0
2016-Apr-26 08:34N 55°12' E 013°27'1717.4
2016-Apr-26 07:33N 55°15' E 012°57'1413.6
2016-Apr-26 06:33N 55°24' E 012°39'1313.0
2016-Apr-26 05:34N 55°37' E 012°42'1313.1
2016-Apr-26 04:34N 55°50' E 012°41'1615.5
2016-Apr-26 03:33N 56°05' E 012°35'1716.4
2016-Apr-26 02:31N 56°18' E 012°15'1718.0
2016-Apr-26 01:33N 56°33' E 011°57'1818.0
2016-Apr-26 00:33N 56°50' E 011°48'1817.6
2016-Apr-25 23:34N 57°06' E 011°37'1817.8
2016-Apr-25 22:34N 57°23' E 011°27'  

Dump ship's entire track history